sensor_id;sensor_type;location;lat;lon;timestamp;P1;durP1;ratioP1;P2;durP2;ratioP2
3563;SDS011;1796;52.388;13.096;2023-05-10T00:01:55;5.97;;;4.03;;
3563;SDS011;1796;52.388;13.096;2023-05-10T00:04:21;6.20;;;5.10;;
3563;SDS011;1796;52.388;13.096;2023-05-10T00:06:52;6.17;;;4.87;;
3563;SDS011;1796;52.388;13.096;2023-05-10T00:09:20;4.70;;;4.30;;
3563;SDS011;1796;52.388;13.096;2023-05-10T00:11:47;9.10;;;4.23;;
3563;SDS011;1796;52.388;13.096;2023-05-10T00:14:14;5.17;;;4.77;;
3563;SDS011;1796;52.388;13.096;2023-05-10T00:16:40;5.97;;;5.07;;
3563;SDS011;1796;52.388;13.096;2023-05-10T00:19:07;4.80;;;4.43;;
3563;SDS011;1796;52.388;13.096;2023-05-10T00:21:34;4.47;;;3.80;;
3563;SDS011;1796;52.388;13.096;2023-05-10T00:24:01;7.87;;;4.83;;
3563;SDS011;1796;52.388;13.096;2023-05-10T00:26:30;6.93;;;4.30;;
3563;SDS011;1796;52.388;13.096;2023-05-10T00:28:56;6.97;;;3.80;;
3563;SDS011;1796;52.388;13.096;2023-05-10T00:31:23;7.93;;;4.97;;
3563;SDS011;1796;52.388;13.096;2023-05-10T00:33:50;7.83;;;4.77;;
3563;SDS011;1796;52.388;13.096;2023-05-10T00:36:17;5.07;;;4.60;;
3563;SDS011;1796;52.388;13.096;2023-05-10T00:38:44;4.97;;;4.47;;
3563;SDS011;1796;52.388;13.096;2023-05-10T00:41:11;5.50;;;4.40;;
3563;SDS011;1796;52.388;13.096;2023-05-10T00:43:39;5.80;;;5.20;;
3563;SDS011;1796;52.388;13.096;2023-05-10T00:46:06;5.63;;;4.90;;
3563;SDS011;1796;52.388;13.096;2023-05-10T00:48:34;6.17;;;4.37;;
3563;SDS011;1796;52.388;13.096;2023-05-10T00:51:01;5.10;;;4.53;;
3563;SDS011;1796;52.388;13.096;2023-05-10T00:53:28;9.60;;;5.20;;
3563;SDS011;1796;52.388;13.096;2023-05-10T00:55:57;4.67;;;4.00;;
3563;SDS011;1796;52.388;13.096;2023-05-10T00:58:25;8.20;;;5.00;;
3563;SDS011;1796;52.388;13.096;2023-05-10T01:00:54;7.50;;;5.43;;
3563;SDS011;1796;52.388;13.096;2023-05-10T01:03:22;6.97;;;4.30;;
3563;SDS011;1796;52.388;13.096;2023-05-10T01:05:48;7.13;;;4.53;;
3563;SDS011;1796;52.388;13.096;2023-05-10T01:08:16;4.50;;;4.20;;
3563;SDS011;1796;52.388;13.096;2023-05-10T01:10:43;4.53;;;4.13;;
3563;SDS011;1796;52.388;13.096;2023-05-10T01:13:11;7.97;;;4.63;;
3563;SDS011;1796;52.388;13.096;2023-05-10T01:15:39;6.10;;;5.27;;
3563;SDS011;1796;52.388;13.096;2023-05-10T01:18:08;5.70;;;5.10;;
3563;SDS011;1796;52.388;13.096;2023-05-10T01:20:36;4.63;;;4.27;;
3563;SDS011;1796;52.388;13.096;2023-05-10T01:32:17;5.43;;;4.77;;
3563;SDS011;1796;52.388;13.096;2023-05-10T01:34:53;5.60;;;4.83;;
3563;SDS011;1796;52.388;13.096;2023-05-10T01:37:26;5.77;;;4.77;;
3563;SDS011;1796;52.388;13.096;2023-05-10T01:40:00;4.73;;;4.33;;
3563;SDS011;1796;52.388;13.096;2023-05-10T01:42:36;5.63;;;5.13;;
3563;SDS011;1796;52.388;13.096;2023-05-10T01:45:08;7.40;;;4.67;;
3563;SDS011;1796;52.388;13.096;2023-05-10T01:47:46;4.80;;;4.40;;
3563;SDS011;1796;52.388;13.096;2023-05-10T01:50:18;5.50;;;4.50;;
3563;SDS011;1796;52.388;13.096;2023-05-10T01:52:49;7.80;;;5.40;;
3563;SDS011;1796;52.388;13.096;2023-05-10T01:55:20;7.17;;;5.00;;
3563;SDS011;1796;52.388;13.096;2023-05-10T01:57:51;4.97;;;4.57;;
3563;SDS011;1796;52.388;13.096;2023-05-10T02:00:27;7.33;;;5.40;;
3563;SDS011;1796;52.388;13.096;2023-05-10T02:02:57;6.20;;;5.43;;
3563;SDS011;1796;52.388;13.096;2023-05-10T02:05:28;5.20;;;4.80;;
3563;SDS011;1796;52.388;13.096;2023-05-10T02:07:56;6.80;;;5.73;;
3563;SDS011;1796;52.388;13.096;2023-05-10T02:10:25;5.50;;;5.00;;
3563;SDS011;1796;52.388;13.096;2023-05-10T02:12:53;5.47;;;4.93;;
3563;SDS011;1796;52.388;13.096;2023-05-10T02:15:22;6.27;;;5.07;;
3563;SDS011;1796;52.388;13.096;2023-05-10T02:17:50;12.63;;;5.57;;
3563;SDS011;1796;52.388;13.096;2023-05-10T02:20:22;17.03;;;4.63;;
3563;SDS011;1796;52.388;13.096;2023-05-10T02:22:50;5.77;;;5.27;;
3563;SDS011;1796;52.388;13.096;2023-05-10T02:25:20;6.77;;;5.30;;
3563;SDS011;1796;52.388;13.096;2023-05-10T02:27:49;10.17;;;5.30;;
3563;SDS011;1796;52.388;13.096;2023-05-10T02:30:17;11.50;;;5.60;;
3563;SDS011;1796;52.388;13.096;2023-05-10T02:32:45;6.50;;;5.43;;
3563;SDS011;1796;52.388;13.096;2023-05-10T02:35:13;6.03;;;5.37;;
3563;SDS011;1796;52.388;13.096;2023-05-10T02:37:42;6.80;;;6.00;;
3563;SDS011;1796;52.388;13.096;2023-05-10T02:40:11;6.43;;;5.47;;
3563;SDS011;1796;52.388;13.096;2023-05-10T02:42:39;6.50;;;5.50;;
3563;SDS011;1796;52.388;13.096;2023-05-10T02:45:11;6.20;;;5.37;;
3563;SDS011;1796;52.388;13.096;2023-05-10T02:47:41;10.23;;;6.03;;
3563;SDS011;1796;52.388;13.096;2023-05-10T02:50:08;9.30;;;5.30;;
3563;SDS011;1796;52.388;13.096;2023-05-10T02:52:38;9.40;;;5.43;;
3563;SDS011;1796;52.388;13.096;2023-05-10T02:55:09;6.17;;;5.60;;
3563;SDS011;1796;52.388;13.096;2023-05-10T02:57:40;7.67;;;5.40;;
3563;SDS011;1796;52.388;13.096;2023-05-10T03:00:10;7.20;;;5.93;;
3563;SDS011;1796;52.388;13.096;2023-05-10T03:02:37;7.87;;;6.30;;
3563;SDS011;1796;52.388;13.096;2023-05-10T03:05:04;7.50;;;6.10;;
3563;SDS011;1796;52.388;13.096;2023-05-10T03:07:32;8.50;;;5.53;;
3563;SDS011;1796;52.388;13.096;2023-05-10T03:09:59;6.33;;;5.73;;
3563;SDS011;1796;52.388;13.096;2023-05-10T03:12:31;7.60;;;6.17;;
3563;SDS011;1796;52.388;13.096;2023-05-10T03:15:10;8.00;;;5.30;;
3563;SDS011;1796;52.388;13.096;2023-05-10T03:17:44;7.23;;;5.87;;
3563;SDS011;1796;52.388;13.096;2023-05-10T03:20:20;9.03;;;6.43;;
3563;SDS011;1796;52.388;13.096;2023-05-10T03:22:51;6.73;;;6.03;;
3563;SDS011;1796;52.388;13.096;2023-05-10T03:25:22;6.40;;;5.80;;
3563;SDS011;1796;52.388;13.096;2023-05-10T03:27:51;12.70;;;6.33;;
3563;SDS011;1796;52.388;13.096;2023-05-10T03:30:18;6.33;;;5.73;;
3563;SDS011;1796;52.388;13.096;2023-05-10T03:32:46;6.80;;;5.47;;
3563;SDS011;1796;52.388;13.096;2023-05-10T03:35:13;8.13;;;6.10;;
3563;SDS011;1796;52.388;13.096;2023-05-10T03:37:40;8.13;;;6.27;;
3563;SDS011;1796;52.388;13.096;2023-05-10T03:40:07;9.70;;;5.37;;
3563;SDS011;1796;52.388;13.096;2023-05-10T03:42:35;7.13;;;5.73;;
3563;SDS011;1796;52.388;13.096;2023-05-10T03:45:03;9.50;;;5.17;;
3563;SDS011;1796;52.388;13.096;2023-05-10T03:47:31;6.50;;;5.90;;
3563;SDS011;1796;52.388;13.096;2023-05-10T03:49:57;7.43;;;5.83;;
3563;SDS011;1796;52.388;13.096;2023-05-10T03:52:24;6.60;;;5.90;;
3563;SDS011;1796;52.388;13.096;2023-05-10T03:54:51;6.70;;;5.77;;
3563;SDS011;1796;52.388;13.096;2023-05-10T03:57:18;7.87;;;5.97;;
3563;SDS011;1796;52.388;13.096;2023-05-10T03:59:45;6.97;;;5.57;;
3563;SDS011;1796;52.388;13.096;2023-05-10T04:02:13;8.43;;;6.00;;
3563;SDS011;1796;52.388;13.096;2023-05-10T04:04:40;6.20;;;5.23;;
3563;SDS011;1796;52.388;13.096;2023-05-10T04:07:08;5.87;;;5.27;;
3563;SDS011;1796;52.388;13.096;2023-05-10T04:09:35;11.63;;;5.57;;
3563;SDS011;1796;52.388;13.096;2023-05-10T04:12:02;7.60;;;5.20;;
3563;SDS011;1796;52.388;13.096;2023-05-10T04:14:29;8.47;;;5.40;;
3563;SDS011;1796;52.388;13.096;2023-05-10T04:16:56;8.63;;;5.10;;
3563;SDS011;1796;52.388;13.096;2023-05-10T04:19:28;11.73;;;6.23;;
3563;SDS011;1796;52.388;13.096;2023-05-10T04:21:55;6.80;;;5.53;;
3563;SDS011;1796;52.388;13.096;2023-05-10T04:24:22;10.90;;;5.53;;
3563;SDS011;1796;52.388;13.096;2023-05-10T04:26:49;7.03;;;5.30;;
3563;SDS011;1796;52.388;13.096;2023-05-10T04:29:16;4.90;;;4.50;;
3563;SDS011;1796;52.388;13.096;2023-05-10T04:31:43;4.73;;;4.43;;
3563;SDS011;1796;52.388;13.096;2023-05-10T04:34:09;7.30;;;4.80;;
3563;SDS011;1796;52.388;13.096;2023-05-10T04:36:38;6.07;;;4.63;;
3563;SDS011;1796;52.388;13.096;2023-05-10T04:39:06;5.77;;;5.27;;
3563;SDS011;1796;52.388;13.096;2023-05-10T04:41:33;9.47;;;5.00;;
3563;SDS011;1796;52.388;13.096;2023-05-10T04:44:00;15.03;;;4.97;;
3563;SDS011;1796;52.388;13.096;2023-05-10T04:46:27;6.00;;;4.93;;
3563;SDS011;1796;52.388;13.096;2023-05-10T04:48:53;10.60;;;5.13;;
3563;SDS011;1796;52.388;13.096;2023-05-10T04:51:20;5.83;;;4.73;;
3563;SDS011;1796;52.388;13.096;2023-05-10T04:53:48;6.03;;;4.37;;
3563;SDS011;1796;52.388;13.096;2023-05-10T04:56:15;6.00;;;4.70;;
3563;SDS011;1796;52.388;13.096;2023-05-10T04:58:42;4.93;;;4.27;;
3563;SDS011;1796;52.388;13.096;2023-05-10T05:01:09;4.83;;;4.30;;
3563;SDS011;1796;52.388;13.096;2023-05-10T05:03:36;7.10;;;4.40;;
3563;SDS011;1796;52.388;13.096;2023-05-10T05:06:03;4.57;;;4.17;;
3563;SDS011;1796;52.388;13.096;2023-05-10T05:08:30;4.67;;;4.23;;
3563;SDS011;1796;52.388;13.096;2023-05-10T05:10:59;5.00;;;4.00;;
3563;SDS011;1796;52.388;13.096;2023-05-10T05:13:25;4.37;;;3.97;;
3563;SDS011;1796;52.388;13.096;2023-05-10T05:15:52;6.23;;;3.83;;
3563;SDS011;1796;52.388;13.096;2023-05-10T05:18:19;14.40;;;4.50;;
3563;SDS011;1796;52.388;13.096;2023-05-10T05:20:46;10.40;;;3.70;;
3563;SDS011;1796;52.388;13.096;2023-05-10T05:23:13;4.40;;;4.07;;
3563;SDS011;1796;52.388;13.096;2023-05-10T05:25:40;8.03;;;3.67;;
3563;SDS011;1796;52.388;13.096;2023-05-10T05:28:08;13.40;;;4.63;;
3563;SDS011;1796;52.388;13.096;2023-05-10T05:30:35;8.00;;;4.37;;
3563;SDS011;1796;52.388;13.096;2023-05-10T05:33:02;4.90;;;4.10;;
3563;SDS011;1796;52.388;13.096;2023-05-10T05:35:29;4.23;;;3.93;;
3563;SDS011;1796;52.388;13.096;2023-05-10T05:37:56;6.77;;;4.50;;
3563;SDS011;1796;52.388;13.096;2023-05-10T05:40:22;9.23;;;4.20;;
3563;SDS011;1796;52.388;13.096;2023-05-10T05:42:49;4.13;;;3.80;;
3563;SDS011;1796;52.388;13.096;2023-05-10T05:45:18;5.97;;;4.17;;
3563;SDS011;1796;52.388;13.096;2023-05-10T05:47:45;5.13;;;3.90;;
3563;SDS011;1796;52.388;13.096;2023-05-10T05:50:12;5.63;;;4.00;;
3563;SDS011;1796;52.388;13.096;2023-05-10T05:52:39;4.50;;;4.10;;
3563;SDS011;1796;52.388;13.096;2023-05-10T05:55:06;4.83;;;3.90;;
3563;SDS011;1796;52.388;13.096;2023-05-10T05:57:33;8.80;;;3.60;;
3563;SDS011;1796;52.388;13.096;2023-05-10T06:00:00;3.80;;;3.47;;
3563;SDS011;1796;52.388;13.096;2023-05-10T06:02:29;4.97;;;3.60;;
3563;SDS011;1796;52.388;13.096;2023-05-10T06:04:56;3.73;;;3.50;;
3563;SDS011;1796;52.388;13.096;2023-05-10T06:07:23;5.20;;;3.50;;
3563;SDS011;1796;52.388;13.096;2023-05-10T06:09:50;3.80;;;3.30;;
3563;SDS011;1796;52.388;13.096;2023-05-10T06:12:17;4.63;;;3.17;;
3563;SDS011;1796;52.388;13.096;2023-05-10T06:14:44;3.10;;;2.90;;
3563;SDS011;1796;52.388;13.096;2023-05-10T06:17:10;5.63;;;3.80;;
3563;SDS011;1796;52.388;13.096;2023-05-10T06:19:39;6.03;;;3.20;;
3563;SDS011;1796;52.388;13.096;2023-05-10T06:22:06;4.90;;;2.90;;
3563;SDS011;1796;52.388;13.096;2023-05-10T06:24:32;3.63;;;3.40;;
3563;SDS011;1796;52.388;13.096;2023-05-10T06:27:00;5.40;;;3.60;;
3563;SDS011;1796;52.388;13.096;2023-05-10T06:29:27;5.00;;;3.40;;
3563;SDS011;1796;52.388;13.096;2023-05-10T06:31:54;7.77;;;2.87;;
3563;SDS011;1796;52.388;13.096;2023-05-10T06:34:21;3.30;;;2.80;;
3563;SDS011;1796;52.388;13.096;2023-05-10T06:36:49;4.50;;;3.40;;
3563;SDS011;1796;52.388;13.096;2023-05-10T06:39:16;7.83;;;3.17;;
3563;SDS011;1796;52.388;13.096;2023-05-10T06:41:43;3.73;;;3.40;;
3563;SDS011;1796;52.388;13.096;2023-05-10T06:44:10;5.20;;;3.33;;
3563;SDS011;1796;52.388;13.096;2023-05-10T06:46:38;4.13;;;3.20;;
3563;SDS011;1796;52.388;13.096;2023-05-10T06:49:04;3.70;;;2.90;;
3563;SDS011;1796;52.388;13.096;2023-05-10T06:51:31;4.63;;;3.10;;
3563;SDS011;1796;52.388;13.096;2023-05-10T06:54:00;5.20;;;3.27;;
3563;SDS011;1796;52.388;13.096;2023-05-10T06:56:26;6.30;;;3.30;;
3563;SDS011;1796;52.388;13.096;2023-05-10T06:58:53;8.23;;;3.13;;
3563;SDS011;1796;52.388;13.096;2023-05-10T07:01:20;5.63;;;3.13;;
3563;SDS011;1796;52.388;13.096;2023-05-10T07:03:47;5.70;;;3.07;;
3563;SDS011;1796;52.388;13.096;2023-05-10T07:06:14;7.47;;;2.97;;
3563;SDS011;1796;52.388;13.096;2023-05-10T07:08:41;6.37;;;2.90;;
3563;SDS011;1796;52.388;13.096;2023-05-10T07:11:09;3.90;;;2.60;;
3563;SDS011;1796;52.388;13.096;2023-05-10T07:13:36;11.00;;;2.77;;
3563;SDS011;1796;52.388;13.096;2023-05-10T07:16:06;9.13;;;2.80;;
3563;SDS011;1796;52.388;13.096;2023-05-10T07:18:33;10.43;;;2.60;;
3563;SDS011;1796;52.388;13.096;2023-05-10T07:21:00;3.50;;;3.20;;
3563;SDS011;1796;52.388;13.096;2023-05-10T07:23:27;3.10;;;2.90;;
3563;SDS011;1796;52.388;13.096;2023-05-10T07:25:54;4.03;;;3.73;;
3563;SDS011;1796;52.388;13.096;2023-05-10T07:28:23;3.90;;;2.83;;
3563;SDS011;1796;52.388;13.096;2023-05-10T07:30:50;8.47;;;3.40;;
3563;SDS011;1796;52.388;13.096;2023-05-10T07:33:17;3.70;;;2.60;;
3563;SDS011;1796;52.388;13.096;2023-05-10T07:35:44;6.83;;;2.93;;
3563;SDS011;1796;52.388;13.096;2023-05-10T07:38:11;3.83;;;2.90;;
3563;SDS011;1796;52.388;13.096;2023-05-10T07:40:38;4.40;;;3.10;;
3563;SDS011;1796;52.388;13.096;2023-05-10T07:43:05;4.33;;;2.90;;
3563;SDS011;1796;52.388;13.096;2023-05-10T07:45:34;4.87;;;3.20;;
3563;SDS011;1796;52.388;13.096;2023-05-10T07:48:01;8.80;;;3.20;;
3563;SDS011;1796;52.388;13.096;2023-05-10T07:50:28;5.70;;;3.17;;
3563;SDS011;1796;52.388;13.096;2023-05-10T07:52:54;3.87;;;3.20;;
3563;SDS011;1796;52.388;13.096;2023-05-10T07:55:21;6.10;;;3.20;;
3563;SDS011;1796;52.388;13.096;2023-05-10T07:57:48;12.23;;;2.67;;
3563;SDS011;1796;52.388;13.096;2023-05-10T08:00:16;3.50;;;2.70;;
3563;SDS011;1796;52.388;13.096;2023-05-10T08:02:46;3.73;;;2.83;;
3563;SDS011;1796;52.388;13.096;2023-05-10T08:05:13;4.07;;;3.43;;
3563;SDS011;1796;52.388;13.096;2023-05-10T08:07:40;2.70;;;2.50;;
3563;SDS011;1796;52.388;13.096;2023-05-10T08:10:08;5.27;;;3.27;;
3563;SDS011;1796;52.388;13.096;2023-05-10T08:12:36;3.70;;;2.83;;
3563;SDS011;1796;52.388;13.096;2023-05-10T08:15:04;5.53;;;2.87;;
3563;SDS011;1796;52.388;13.096;2023-05-10T08:17:32;3.40;;;3.13;;
3563;SDS011;1796;52.388;13.096;2023-05-10T08:20:00;7.67;;;2.87;;
3563;SDS011;1796;52.388;13.096;2023-05-10T08:22:27;3.30;;;3.10;;
3563;SDS011;1796;52.388;13.096;2023-05-10T08:24:54;4.70;;;3.33;;
3563;SDS011;1796;52.388;13.096;2023-05-10T08:27:21;4.10;;;2.93;;
3563;SDS011;1796;52.388;13.096;2023-05-10T08:29:48;2.67;;;2.47;;
3563;SDS011;1796;52.388;13.096;2023-05-10T08:32:15;10.20;;;3.10;;
3563;SDS011;1796;52.388;13.096;2023-05-10T08:34:41;4.03;;;3.67;;
3563;SDS011;1796;52.388;13.096;2023-05-10T08:37:10;2.70;;;2.50;;
3563;SDS011;1796;52.388;13.096;2023-05-10T08:39:38;3.07;;;2.87;;
3563;SDS011;1796;52.388;13.096;2023-05-10T08:42:05;3.53;;;3.30;;
3563;SDS011;1796;52.388;13.096;2023-05-10T08:44:34;4.20;;;2.73;;
3563;SDS011;1796;52.388;13.096;2023-05-10T08:47:02;6.90;;;3.77;;
3563;SDS011;1796;52.388;13.096;2023-05-10T08:49:31;6.20;;;3.07;;
3563;SDS011;1796;52.388;13.096;2023-05-10T08:51:59;3.00;;;2.67;;
3563;SDS011;1796;52.388;13.096;2023-05-10T08:54:30;3.07;;;2.60;;
3563;SDS011;1796;52.388;13.096;2023-05-10T08:56:58;3.27;;;3.07;;
3563;SDS011;1796;52.388;13.096;2023-05-10T08:59:25;8.43;;;3.40;;
3563;SDS011;1796;52.388;13.096;2023-05-10T09:01:52;7.97;;;3.07;;
3563;SDS011;1796;52.388;13.096;2023-05-10T09:04:21;3.87;;;2.80;;
3563;SDS011;1796;52.388;13.096;2023-05-10T09:06:49;6.17;;;3.17;;
3563;SDS011;1796;52.388;13.096;2023-05-10T09:09:16;17.40;;;2.93;;
3563;SDS011;1796;52.388;13.096;2023-05-10T09:11:44;7.57;;;3.10;;
3563;SDS011;1796;52.388;13.096;2023-05-10T09:14:12;2.90;;;2.70;;
3563;SDS011;1796;52.388;13.096;2023-05-10T09:16:41;3.33;;;3.00;;
3563;SDS011;1796;52.388;13.096;2023-05-10T09:19:08;12.67;;;3.33;;
3563;SDS011;1796;52.388;13.096;2023-05-10T09:21:35;5.43;;;3.17;;
3563;SDS011;1796;52.388;13.096;2023-05-10T09:24:03;3.63;;;3.33;;
3563;SDS011;1796;52.388;13.096;2023-05-10T09:26:31;3.90;;;3.40;;
3563;SDS011;1796;52.388;13.096;2023-05-10T09:28:59;10.23;;;3.30;;
3563;SDS011;1796;52.388;13.096;2023-05-10T09:31:44;12.80;;;3.37;;
3563;SDS011;1796;52.388;13.096;2023-05-10T09:34:15;3.70;;;3.37;;
3563;SDS011;1796;52.388;13.096;2023-05-10T09:36:52;3.23;;;3.03;;
3563;SDS011;1796;52.388;13.096;2023-05-10T09:39:21;9.07;;;4.00;;
3563;SDS011;1796;52.388;13.096;2023-05-10T09:41:57;3.23;;;2.90;;
3563;SDS011;1796;52.388;13.096;2023-05-10T09:44:27;8.73;;;3.47;;
3563;SDS011;1796;52.388;13.096;2023-05-10T09:46:54;9.17;;;3.53;;
3563;SDS011;1796;52.388;13.096;2023-05-10T09:49:21;7.93;;;2.27;;
3563;SDS011;1796;52.388;13.096;2023-05-10T09:51:57;4.00;;;2.30;;
3563;SDS011;1796;52.388;13.096;2023-05-10T09:54:27;2.63;;;2.43;;
3563;SDS011;1796;52.388;13.096;2023-05-10T09:56:54;2.80;;;2.60;;
3563;SDS011;1796;52.388;13.096;2023-05-10T09:59:21;6.50;;;2.30;;
3563;SDS011;1796;52.388;13.096;2023-05-10T10:01:52;3.73;;;3.43;;
3563;SDS011;1796;52.388;13.096;2023-05-10T10:04:19;5.50;;;3.13;;
3563;SDS011;1796;52.388;13.096;2023-05-10T10:06:47;3.10;;;2.40;;
3563;SDS011;1796;52.388;13.096;2023-05-10T10:09:25;6.63;;;2.63;;
3563;SDS011;1796;52.388;13.096;2023-05-10T10:11:53;9.13;;;2.90;;
3563;SDS011;1796;52.388;13.096;2023-05-10T10:14:21;3.20;;;2.90;;
3563;SDS011;1796;52.388;13.096;2023-05-10T10:16:49;4.00;;;2.83;;
3563;SDS011;1796;52.388;13.096;2023-05-10T10:19:17;9.80;;;3.50;;
3563;SDS011;1796;52.388;13.096;2023-05-10T10:21:45;3.33;;;2.60;;
3563;SDS011;1796;52.388;13.096;2023-05-10T10:24:12;2.80;;;2.70;;
3563;SDS011;1796;52.388;13.096;2023-05-10T10:26:39;21.83;;;2.63;;
3563;SDS011;1796;52.388;13.096;2023-05-10T10:29:09;2.60;;;2.50;;
3563;SDS011;1796;52.388;13.096;2023-05-10T10:31:45;7.10;;;3.43;;
3563;SDS011;1796;52.388;13.096;2023-05-10T10:34:20;2.80;;;2.30;;
3563;SDS011;1796;52.388;13.096;2023-05-10T10:36:52;6.53;;;2.33;;
3563;SDS011;1796;52.388;13.096;2023-05-10T10:39:21;3.00;;;2.80;;
3563;SDS011;1796;52.388;13.096;2023-05-10T10:41:50;6.07;;;2.50;;
3563;SDS011;1796;52.388;13.096;2023-05-10T10:44:35;7.13;;;3.07;;
3563;SDS011;1796;52.388;13.096;2023-05-10T10:47:04;7.63;;;2.50;;
3563;SDS011;1796;52.388;13.096;2023-05-10T10:49:38;10.63;;;2.70;;
3563;SDS011;1796;52.388;13.096;2023-05-10T10:52:13;3.63;;;2.30;;
3563;SDS011;1796;52.388;13.096;2023-05-10T10:54:41;4.40;;;2.80;;
3563;SDS011;1796;52.388;13.096;2023-05-10T10:57:17;2.63;;;2.43;;
3563;SDS011;1796;52.388;13.096;2023-05-10T10:59:46;5.00;;;2.47;;
3563;SDS011;1796;52.388;13.096;2023-05-10T11:02:32;7.60;;;2.60;;
3563;SDS011;1796;52.388;13.096;2023-05-10T11:05:03;3.97;;;2.60;;
3563;SDS011;1796;52.388;13.096;2023-05-10T11:07:52;3.20;;;2.70;;
3563;SDS011;1796;52.388;13.096;2023-05-10T11:10:20;2.80;;;2.50;;
3563;SDS011;1796;52.388;13.096;2023-05-10T11:12:51;5.07;;;2.40;;
3563;SDS011;1796;52.388;13.096;2023-05-10T11:15:19;2.70;;;2.50;;
3563;SDS011;1796;52.388;13.096;2023-05-10T11:17:47;4.87;;;2.30;;
3563;SDS011;1796;52.388;13.096;2023-05-10T11:20:18;3.20;;;2.37;;
3563;SDS011;1796;52.388;13.096;2023-05-10T11:22:49;2.60;;;2.40;;
3563;SDS011;1796;52.388;13.096;2023-05-10T11:25:17;3.70;;;2.43;;
3563;SDS011;1796;52.388;13.096;2023-05-10T11:27:44;4.87;;;2.80;;
3563;SDS011;1796;52.388;13.096;2023-05-10T11:30:11;7.80;;;2.73;;
3563;SDS011;1796;52.388;13.096;2023-05-10T11:32:39;2.40;;;2.30;;
3563;SDS011;1796;52.388;13.096;2023-05-10T11:35:07;2.47;;;2.23;;
3563;SDS011;1796;52.388;13.096;2023-05-10T11:37:35;7.33;;;2.70;;
3563;SDS011;1796;52.388;13.096;2023-05-10T11:40:06;2.50;;;2.30;;
3563;SDS011;1796;52.388;13.096;2023-05-10T11:42:35;5.20;;;2.43;;
3563;SDS011;1796;52.388;13.096;2023-05-10T11:45:03;3.60;;;2.13;;
3563;SDS011;1796;52.388;13.096;2023-05-10T11:47:30;2.47;;;2.27;;
3563;SDS011;1796;52.388;13.096;2023-05-10T11:49:57;2.27;;;2.17;;
3563;SDS011;1796;52.388;13.096;2023-05-10T11:52:25;8.53;;;2.37;;
3563;SDS011;1796;52.388;13.096;2023-05-10T11:54:53;2.73;;;2.53;;
3563;SDS011;1796;52.388;13.096;2023-05-10T11:57:25;4.23;;;2.53;;
3563;SDS011;1796;52.388;13.096;2023-05-10T11:59:53;4.57;;;2.10;;
3563;SDS011;1796;52.388;13.096;2023-05-10T12:02:20;2.13;;;2.03;;
3563;SDS011;1796;52.388;13.096;2023-05-10T12:04:47;6.00;;;2.40;;
3563;SDS011;1796;52.388;13.096;2023-05-10T12:07:14;5.40;;;2.90;;
3563;SDS011;1796;52.388;13.096;2023-05-10T12:09:42;10.63;;;2.20;;
3563;SDS011;1796;52.388;13.096;2023-05-10T12:12:11;2.40;;;2.20;;
3563;SDS011;1796;52.388;13.096;2023-05-10T12:14:42;3.83;;;2.60;;
3563;SDS011;1796;52.388;13.096;2023-05-10T12:17:11;4.43;;;2.27;;
3563;SDS011;1796;52.388;13.096;2023-05-10T12:19:38;4.10;;;2.40;;
3563;SDS011;1796;52.388;13.096;2023-05-10T12:22:05;3.80;;;3.10;;
3563;SDS011;1796;52.388;13.096;2023-05-10T12:24:33;3.93;;;2.40;;
3563;SDS011;1796;52.388;13.096;2023-05-10T12:27:04;4.73;;;2.60;;
3563;SDS011;1796;52.388;13.096;2023-05-10T12:29:34;4.53;;;2.10;;
3563;SDS011;1796;52.388;13.096;2023-05-10T12:32:01;2.50;;;2.40;;
3563;SDS011;1796;52.388;13.096;2023-05-10T12:34:30;6.93;;;2.60;;
3563;SDS011;1796;52.388;13.096;2023-05-10T12:36:58;5.43;;;2.20;;
3563;SDS011;1796;52.388;13.096;2023-05-10T12:39:25;3.23;;;2.10;;
3563;SDS011;1796;52.388;13.096;2023-05-10T12:41:52;3.50;;;2.47;;
3563;SDS011;1796;52.388;13.096;2023-05-10T12:44:19;3.33;;;2.20;;
3563;SDS011;1796;52.388;13.096;2023-05-10T12:46:47;11.30;;;2.80;;
3563;SDS011;1796;52.388;13.096;2023-05-10T12:49:14;3.70;;;2.40;;
3563;SDS011;1796;52.388;13.096;2023-05-10T12:51:41;2.57;;;2.13;;
3563;SDS011;1796;52.388;13.096;2023-05-10T12:54:08;11.60;;;2.20;;
3563;SDS011;1796;52.388;13.096;2023-05-10T12:56:35;9.23;;;2.50;;
3563;SDS011;1796;52.388;13.096;2023-05-10T12:59:02;3.83;;;2.60;;
3563;SDS011;1796;52.388;13.096;2023-05-10T13:01:29;2.17;;;2.07;;
3563;SDS011;1796;52.388;13.096;2023-05-10T13:03:58;3.50;;;2.60;;
3563;SDS011;1796;52.388;13.096;2023-05-10T13:06:25;3.33;;;2.27;;
3563;SDS011;1796;52.388;13.096;2023-05-10T13:08:52;3.73;;;2.20;;
3563;SDS011;1796;52.388;13.096;2023-05-10T13:11:19;3.57;;;2.80;;
3563;SDS011;1796;52.388;13.096;2023-05-10T13:13:46;5.80;;;2.67;;
3563;SDS011;1796;52.388;13.096;2023-05-10T13:16:13;3.57;;;2.33;;
3563;SDS011;1796;52.388;13.096;2023-05-10T13:18:40;2.70;;;2.50;;
3563;SDS011;1796;52.388;13.096;2023-05-10T13:21:08;3.13;;;2.80;;
3563;SDS011;1796;52.388;13.096;2023-05-10T13:23:36;2.37;;;2.27;;
3563;SDS011;1796;52.388;13.096;2023-05-10T13:26:03;2.33;;;2.23;;
3563;SDS011;1796;52.388;13.096;2023-05-10T13:28:30;7.30;;;2.50;;
3563;SDS011;1796;52.388;13.096;2023-05-10T13:30:57;7.07;;;2.30;;
3563;SDS011;1796;52.388;13.096;2023-05-10T13:33:25;8.50;;;3.00;;
3563;SDS011;1796;52.388;13.096;2023-05-10T13:35:51;4.30;;;2.67;;
3563;SDS011;1796;52.388;13.096;2023-05-10T13:38:20;2.67;;;2.47;;
3563;SDS011;1796;52.388;13.096;2023-05-10T13:40:46;4.00;;;3.37;;
3563;SDS011;1796;52.388;13.096;2023-05-10T13:43:17;2.90;;;2.70;;
3563;SDS011;1796;52.388;13.096;2023-05-10T13:45:44;7.70;;;2.53;;
3563;SDS011;1796;52.388;13.096;2023-05-10T13:48:11;5.07;;;2.67;;
3563;SDS011;1796;52.388;13.096;2023-05-10T13:50:38;4.33;;;3.93;;
3563;SDS011;1796;52.388;13.096;2023-05-10T13:53:05;2.77;;;2.60;;
3563;SDS011;1796;52.388;13.096;2023-05-10T13:55:33;5.90;;;2.50;;
3563;SDS011;1796;52.388;13.096;2023-05-10T13:58:00;3.30;;;2.40;;
3563;SDS011;1796;52.388;13.096;2023-05-10T14:00:27;8.80;;;3.00;;
3563;SDS011;1796;52.388;13.096;2023-05-10T14:02:54;13.63;;;2.40;;
3563;SDS011;1796;52.388;13.096;2023-05-10T14:05:21;6.73;;;2.60;;
3563;SDS011;1796;52.388;13.096;2023-05-10T14:07:49;5.73;;;2.70;;
3563;SDS011;1796;52.388;13.096;2023-05-10T14:10:16;2.53;;;2.33;;
3563;SDS011;1796;52.388;13.096;2023-05-10T14:12:45;2.83;;;2.63;;
3563;SDS011;1796;52.388;13.096;2023-05-10T14:15:11;2.40;;;2.20;;
3563;SDS011;1796;52.388;13.096;2023-05-10T14:17:38;3.07;;;2.77;;
3563;SDS011;1796;52.388;13.096;2023-05-10T14:20:06;4.00;;;2.97;;
3563;SDS011;1796;52.388;13.096;2023-05-10T14:22:34;9.20;;;2.40;;
3563;SDS011;1796;52.388;13.096;2023-05-10T14:25:00;6.90;;;2.70;;
3563;SDS011;1796;52.388;13.096;2023-05-10T14:27:27;11.73;;;2.60;;
3563;SDS011;1796;52.388;13.096;2023-05-10T14:29:56;3.20;;;2.60;;
3563;SDS011;1796;52.388;13.096;2023-05-10T14:32:23;6.80;;;2.83;;
3563;SDS011;1796;52.388;13.096;2023-05-10T14:34:51;2.80;;;2.60;;
3563;SDS011;1796;52.388;13.096;2023-05-10T14:37:18;3.77;;;3.47;;
3563;SDS011;1796;52.388;13.096;2023-05-10T14:39:46;4.73;;;2.53;;
3563;SDS011;1796;52.388;13.096;2023-05-10T14:42:12;5.07;;;2.80;;
3563;SDS011;1796;52.388;13.096;2023-05-10T14:44:39;8.60;;;2.43;;
3563;SDS011;1796;52.388;13.096;2023-05-10T14:47:07;4.00;;;2.57;;
3563;SDS011;1796;52.388;13.096;2023-05-10T14:49:34;4.90;;;2.50;;
3563;SDS011;1796;52.388;13.096;2023-05-10T14:52:01;5.07;;;2.83;;
3563;SDS011;1796;52.388;13.096;2023-05-10T14:54:28;3.40;;;3.20;;
3563;SDS011;1796;52.388;13.096;2023-05-10T14:56:55;2.67;;;2.43;;
3563;SDS011;1796;52.388;13.096;2023-05-10T14:59:22;10.23;;;3.57;;
3563;SDS011;1796;52.388;13.096;2023-05-10T15:01:50;5.53;;;2.40;;
3563;SDS011;1796;52.388;13.096;2023-05-10T15:04:18;4.60;;;2.33;;
3563;SDS011;1796;52.388;13.096;2023-05-10T15:06:46;11.90;;;2.60;;
3563;SDS011;1796;52.388;13.096;2023-05-10T15:09:13;3.80;;;2.87;;
3563;SDS011;1796;52.388;13.096;2023-05-10T15:11:40;3.13;;;3.03;;
3563;SDS011;1796;52.388;13.096;2023-05-10T15:14:08;3.23;;;3.03;;
3563;SDS011;1796;52.388;13.096;2023-05-10T15:16:35;4.40;;;3.40;;